TimeHST,TemperatureF,Dew PointF,Humidity,Sea Level PressureIn,VisibilityMPH,Wind Direction,Wind SpeedMPH,Gust SpeedMPH,PrecipitationIn,Events,Conditions,WindDirDegrees,DateUTC
12:56 AM,73.0,63.0,71,30.02,10.0,ENE,3.5,-,N/A,,Clear,70,2012-10-29 10:56:00
1:56 AM,72.0,64.9,78,30.01,10.0,ENE,6.9,-,N/A,,Clear,60,2012-10-29 11:56:00
2:56 AM,71.1,64.9,81,30.00,10.0,ESE,4.6,-,N/A,,Partly Cloudy,120,2012-10-29 12:56:00
3:56 AM,72.0,60.1,66,30.02,10.0,East,3.5,-,N/A,,Overcast,90,2012-10-29 13:56:00
4:56 AM,72.0,62.1,71,30.03,10.0,ENE,3.5,-,N/A,,Clear,70,2012-10-29 14:56:00
5:56 AM,73.0,63.0,71,30.04,10.0,East,3.5,-,N/A,,Scattered Clouds,80,2012-10-29 15:56:00
6:56 AM,72.0,66.9,84,30.06,10.0,ESE,4.6,-,N/A,,Clear,120,2012-10-29 16:56:00
7:56 AM,77.0,68.0,74,30.07,10.0,Calm,Calm,-,N/A,,Clear,0,2012-10-29 17:56:00
8:56 AM,80.1,39.9,24,30.09,10.0,Calm,Calm,-,N/A,,Clear,0,2012-10-29 18:56:00
9:56 AM,81.0,-7.1,4,30.09,10.0,WNW,3.5,-,N/A,,Clear,290,2012-10-29 19:56:00
10:56 AM,81.0,-9999,N/A,30.07,10.0,West,5.8,-,N/A,,Clear,260,2012-10-29 20:56:00
11:56 AM,82.9,33.1,17,30.05,10.0,NW,9.2,-,N/A,,Clear,320,2012-10-29 21:56:00
12:56 PM,84.0,34.0,17,30.01,10.0,NW,10.4,-,N/A,,Clear,320,2012-10-29 22:56:00
1:56 PM,84.0,-9999,N/A,29.99,10.0,WNW,9.2,-,N/A,,Clear,290,2012-10-29 23:56:00
2:56 PM,82.9,10.9,7,29.97,10.0,West,8.1,-,N/A,,Clear,270,2012-10-30 00:56:00
3:56 PM,82.9,19.9,10,29.98,10.0,West,5.8,-,N/A,,Clear,280,2012-10-30 01:56:00
4:56 PM,82.0,34.0,18,29.99,10.0,West,4.6,-,N/A,,Clear,270,2012-10-30 02:56:00
5:56 PM,81.0,63.0,54,30.00,10.0,West,6.9,-,N/A,,Partly Cloudy,260,2012-10-30 03:56:00
6:56 PM,80.1,60.1,50,30.01,10.0,Calm,Calm,-,N/A,,Clear,0,2012-10-30 04:56:00
7:56 PM,75.9,64.0,67,30.03,10.0,East,3.5,-,N/A,,Clear,100,2012-10-30 05:56:00
8:56 PM,77.0,59.0,54,30.06,10.0,Calm,Calm,-,N/A,,Clear,0,2012-10-30 06:56:00
9:56 PM,75.0,69.1,82,30.07,10.0,ENE,3.5,-,N/A,,Clear,60,2012-10-30 07:56:00
10:56 PM,73.0,66.0,79,30.07,10.0,ENE,4.6,-,N/A,,Clear,70,2012-10-30 08:56:00
11:56 PM,73.0,60.1,64,30.08,10.0,East,3.5,-,N/A,,Clear,100,2012-10-30 09:56:00